Wetterdaten: Woche 07.04.14 - 13.04.14 (KW15)
Datum Zeit Temp. Aussen +5cm Feuchte Auss Luftdruck Regen Sonnenschein Regendauer UV Solar Windben
07.04.2014 00:00 15,8 C 13,8 C 80 % 1017,1 hPa 0,0 l/m 0,00 h 0,00 h 0,0 UV-I 0 W/m 3,3 km/h (1 Bft)
07.04.2014 01:00 15,4 C 13,7 C 81 % 1017,2 hPa 0,0 l/m 0,00 h 0,00 h 0,0 UV-I 0 W/m 3,3 km/h (1 Bft)
07.04.2014 02:00 15,1 C 13,3 C 83 % 1017,2 hPa 0,0 l/m 0,00 h 0,03 h 0,0 UV-I 0 W/m 3,0 km/h (1 Bft)
07.04.2014 03:00 14,5 C 12,9 C 87 % 1017,0 hPa 0,0 l/m 0,00 h 0,00 h 0,0 UV-I 0 W/m 0,0 km/h (0 Bft)
07.04.2014 04:00 14,5 C 12,6 C 86 % 1016,8 hPa 0,0 l/m 0,00 h 0,00 h 0,0 UV-I 0 W/m 0,3 km/h (0 Bft)
07.04.2014 05:00 13,9 C 12,2 C 88 % 1016,6 hPa 0,0 l/m 0,00 h 0,00 h 0,0 UV-I 0 W/m 0,8 km/h (0 Bft)
07.04.2014 06:00 13,5 C 11,8 C 91 % 1016,6 hPa 0,0 l/m 0,00 h 0,00 h 0,0 UV-I 0 W/m 0,0 km/h (0 Bft)
07.04.2014 07:00 13,7 C 12,1 C 91 % 1016,4 hPa 0,0 l/m 0,00 h 0,00 h 0,0 UV-I 20 W/m 0,2 km/h (0 Bft)
07.04.2014 08:00 14,8 C 13,5 C 89 % 1016,3 hPa 0,0 l/m 0,00 h 0,00 h 0,0 UV-I 75 W/m 1,3 km/h (1 Bft)
07.04.2014 09:00 16,6 C 15,0 C 84 % 1016,2 hPa 0,0 l/m 0,97 h 0,00 h 0,6 UV-I 303 W/m 6,4 km/h (2 Bft)
07.04.2014 10:00 18,2 C 17,0 C 78 % 1015,9 hPa 0,0 l/m 0,50 h 0,00 h 0,8 UV-I 333 W/m 8,9 km/h (2 Bft)
07.04.2014 11:00 19,3 C 18,6 C 73 % 1015,5 hPa 0,0 l/m 0,57 h 0,00 h 1,5 UV-I 378 W/m 10,3 km/h (2 Bft)
07.04.2014 12:00 21,2 C 20,9 C 65 % 1014,6 hPa 0,0 l/m 0,97 h 0,00 h 2,2 UV-I 565 W/m 11,4 km/h (2 Bft)
07.04.2014 13:00 21,7 C 21,7 C 63 % 1013,9 hPa 0,0 l/m 0,77 h 0,00 h 2,0 UV-I 484 W/m 14,1 km/h (3 Bft)
07.04.2014 14:00 22,1 C 21,3 C 61 % 1013,0 hPa 0,0 l/m 0,43 h 0,00 h 1,8 UV-I 432 W/m 18,9 km/h (3 Bft)
07.04.2014 15:00 22,2 C 20,7 C 60 % 1011,9 hPa 0,0 l/m 0,30 h 0,00 h 1,4 UV-I 353 W/m 16,7 km/h (3 Bft)
07.04.2014 16:00 22,2 C 15,3 C 58 % 1010,9 hPa 0,0 l/m 0,50 h 0,00 h 1,1 UV-I 378 W/m 23,0 km/h (4 Bft)
07.04.2014 17:00 21,5 C 17,6 C 59 % 1009,8 hPa 0,0 l/m 0,17 h 0,00 h 0,6 UV-I 187 W/m 22,3 km/h (4 Bft)
07.04.2014 18:00 20,8 C 18,1 C 61 % 1009,0 hPa 0,0 l/m 0,00 h 0,00 h 0,0 UV-I 77 W/m 14,9 km/h (3 Bft)
07.04.2014 19:00 20,0 C 17,2 C 63 % 1008,4 hPa 0,0 l/m 0,00 h 0,00 h 0,0 UV-I 23 W/m 9,6 km/h (2 Bft)
07.04.2014 20:00 19,1 C 16,3 C 64 % 1007,9 hPa 0,0 l/m 0,00 h 0,00 h 0,0 UV-I 6 W/m 10,6 km/h (2 Bft)
07.04.2014 21:00 18,5 C 15,8 C 64 % 1007,5 hPa 0,0 l/m 0,00 h 0,00 h 0,0 UV-I 0 W/m 13,0 km/h (3 Bft)
07.04.2014 22:00 17,6 C 14,5 C 68 % 1007,4 hPa 0,4 l/m 0,00 h 0,27 h 0,0 UV-I 0 W/m 12,9 km/h (3 Bft)
07.04.2014 23:00 14,1 C 12,2 C 93 % 1008,7 hPa 3,0 l/m 0,00 h 0,67 h 0,0 UV-I 0 W/m 2,9 km/h (1 Bft)
08.04.2014 00:00 13,8 C 12,2 C 96 % 1008,7 hPa 0,2 l/m 0,00 h 0,23 h 0,0 UV-I 0 W/m 4,0 km/h (1 Bft)
08.04.2014 01:00 13,4 C 11,8 C 97 % 1008,5 hPa 0,0 l/m 0,00 h 0,00 h 0,0 UV-I 0 W/m 7,5 km/h (2 Bft)
08.04.2014 02:00 13,4 C 11,6 C 95 % 1008,1 hPa 0,0 l/m 0,00 h 0,00 h 0,0 UV-I 0 W/m 10,9 km/h (2 Bft)
08.04.2014 03:00 13,9 C 11,7 C 91 % 1007,9 hPa 0,0 l/m 0,00 h 0,00 h 0,0 UV-I 0 W/m 15,2 km/h (3 Bft)
08.04.2014 04:00 13,6 C 11,7 C 88 % 1008,2 hPa 0,0 l/m 0,00 h 0,03 h 0,0 UV-I 0 W/m 22,7 km/h (4 Bft)
08.04.2014 05:00 11,7 C 10,1 C 86 % 1009,3 hPa 0,0 l/m 0,00 h 0,13 h 0,0 UV-I 0 W/m 18,7 km/h (3 Bft)
08.04.2014 06:00 10,2 C 8,7 C 92 % 1010,8 hPa 1,2 l/m 0,00 h 0,70 h 0,0 UV-I 5 W/m 16,3 km/h (3 Bft)
08.04.2014 07:00 9,2 C 7,8 C 95 % 1012,0 hPa 0,0 l/m 0,00 h 0,03 h 0,0 UV-I 27 W/m 10,9 km/h (2 Bft)
08.04.2014 08:00 9,6 C 8,0 C 91 % 1013,1 hPa 0,0 l/m 0,10 h 0,00 h 0,0 UV-I 87 W/m 14,8 km/h (3 Bft)
08.04.2014 09:00 9,9 C 8,1 C 86 % 1013,9 hPa 0,0 l/m 0,13 h 0,00 h 0,0 UV-I 160 W/m 14,7 km/h (3 Bft)
08.04.2014 10:00 10,4 C 8,4 C 82 % 1014,1 hPa 0,0 l/m 0,07 h 0,37 h 0,6 UV-I 196 W/m 16,1 km/h (3 Bft)
08.04.2014 11:00 10,6 C 9,0 C 81 % 1014,7 hPa 1,0 l/m 0,40 h 0,27 h 1,4 UV-I 380 W/m 18,2 km/h (3 Bft)
08.04.2014 12:00 10,3 C 8,5 C 81 % 1015,1 hPa 0,0 l/m 0,40 h 0,00 h 1,4 UV-I 412 W/m 18,1 km/h (3 Bft)
08.04.2014 13:00 11,5 C 9,0 C 70 % 1015,5 hPa 0,2 l/m 0,10 h 0,20 h 1,1 UV-I 270 W/m 19,3 km/h (3 Bft)
08.04.2014 14:00 11,4 C 9,1 C 66 % 1016,3 hPa 0,0 l/m 0,40 h 0,23 h 1,9 UV-I 423 W/m 23,8 km/h (4 Bft)
08.04.2014 15:00 10,6 C 10,0 C 66 % 1017,1 hPa 0,0 l/m 0,03 h 0,07 h 0,8 UV-I 247 W/m 20,0 km/h (4 Bft)
08.04.2014 16:00 11,3 C 10,7 C 63 % 1017,5 hPa 0,0 l/m 0,50 h 0,00 h 1,1 UV-I 414 W/m 20,2 km/h (4 Bft)
08.04.2014 17:00 9,7 C 8,0 C 75 % 1018,0 hPa 0,2 l/m 0,23 h 0,13 h 0,0 UV-I 204 W/m 11,7 km/h (2 Bft)
08.04.2014 18:00 9,8 C 8,7 C 71 % 1018,6 hPa 0,0 l/m 0,10 h 0,03 h 0,0 UV-I 95 W/m 14,4 km/h (3 Bft)
08.04.2014 19:00 9,2 C 7,6 C 71 % 1019,0 hPa 0,0 l/m 0,00 h 0,00 h 0,0 UV-I 25 W/m 11,0 km/h (2 Bft)
08.04.2014 20:00 8,2 C 6,3 C 75 % 1020,1 hPa 0,2 l/m 0,00 h 0,30 h 0,0 UV-I 6 W/m 12,8 km/h (3 Bft)
08.04.2014 21:00 6,5 C 4,8 C 87 % 1021,5 hPa 0,6 l/m 0,00 h 0,33 h 0,0 UV-I 0 W/m 8,2 km/h (2 Bft)
08.04.2014 22:00 5,6 C 4,4 C 91 % 1021,8 hPa 1,6 l/m 0,00 h 0,70 h 0,0 UV-I 0 W/m 7,9 km/h (2 Bft)
08.04.2014 23:00 5,6 C 4,1 C 92 % 1022,2 hPa 0,2 l/m 0,00 h 0,10 h 0,0 UV-I 0 W/m 5,0 km/h (1 Bft)
09.04.2014 00:00 4,9 C 3,8 C 93 % 1022,8 hPa 0,0 l/m 0,00 h 0,00 h 0,0 UV-I 0 W/m 1,1 km/h (0 Bft)
09.04.2014 01:00 4,9 C 3,7 C 95 % 1023,0 hPa 0,0 l/m 0,00 h 0,00 h 0,0 UV-I 0 W/m 1,2 km/h (1 Bft)
09.04.2014 02:00 5,1 C 3,8 C 94 % 1023,4 hPa 0,0 l/m 0,00 h 0,03 h 0,0 UV-I 0 W/m 2,5 km/h (1 Bft)
09.04.2014 03:00 5,2 C 3,9 C 95 % 1023,5 hPa 0,0 l/m 0,00 h 0,00 h 0,0 UV-I 0 W/m 3,1 km/h (1 Bft)
09.04.2014 04:00 5,4 C 3,9 C 95 % 1023,6 hPa 0,0 l/m 0,00 h 0,00 h 0,0 UV-I 0 W/m 5,7 km/h (1 Bft)
09.04.2014 05:00 5,2 C 3,9 C 95 % 1023,6 hPa 0,0 l/m 0,00 h 0,00 h 0,0 UV-I 0 W/m 2,1 km/h (1 Bft)
09.04.2014 06:00 4,6 C 3,4 C 96 % 1023,9 hPa 0,2 l/m 0,00 h 0,00 h 0,0 UV-I 6 W/m 2,5 km/h (1 Bft)
09.04.2014 07:00 4,7 C 3,7 C 97 % 1024,1 hPa 0,0 l/m 0,00 h 0,00 h 0,0 UV-I 26 W/m 3,1 km/h (1 Bft)
09.04.2014 08:00 5,8 C 4,8 C 97 % 1024,5 hPa 0,0 l/m 0,43 h 0,00 h 0,0 UV-I 122 W/m 5,6 km/h (1 Bft)
09.04.2014 09:00 7,8 C 6,5 C 93 % 1024,7 hPa 0,0 l/m 0,87 h 0,00 h 0,0 UV-I 295 W/m 6,8 km/h (2 Bft)
09.04.2014 10:00 10,3 C 8,8 C 83 % 1024,8 hPa 0,0 l/m 0,73 h 0,00 h 0,9 UV-I 476 W/m 9,3 km/h (2 Bft)
09.04.2014 11:00 11,9 C 10,8 C 73 % 1024,9 hPa 0,0 l/m 0,63 h 0,00 h 1,3 UV-I 486 W/m 11,7 km/h (2 Bft)
09.04.2014 12:00 12,6 C 12,2 C 68 % 1024,8 hPa 0,0 l/m 0,17 h 0,00 h 1,3 UV-I 336 W/m 13,0 km/h (3 Bft)
09.04.2014 13:00 12,9 C 12,4 C 66 % 1024,6 hPa 0,0 l/m 0,13 h 0,00 h 1,0 UV-I 333 W/m 12,1 km/h (2 Bft)
09.04.2014 14:00 13,6 C 13,0 C 62 % 1024,2 hPa 0,0 l/m 0,20 h 0,00 h 1,2 UV-I 320 W/m 15,6 km/h (3 Bft)
09.04.2014 15:00 14,4 C 13,8 C 59 % 1023,8 hPa 0,0 l/m 0,33 h 0,00 h 1,3 UV-I 424 W/m 13,4 km/h (3 Bft)
09.04.2014 16:00 15,8 C 15,4 C 56 % 1023,3 hPa 0,0 l/m 0,93 h 0,00 h 1,3 UV-I 591 W/m 13,2 km/h (3 Bft)
09.04.2014 17:00 15,1 C 14,0 C 58 % 1023,1 hPa 0,0 l/m 0,40 h 0,00 h 0,6 UV-I 265 W/m 11,3 km/h (2 Bft)
09.04.2014 18:00 14,3 C 12,9 C 62 % 1023,0 hPa 0,0 l/m 0,20 h 0,00 h 0,0 UV-I 133 W/m 7,8 km/h (2 Bft)
09.04.2014 19:00 13,7 C 12,0 C 63 % 1023,0 hPa 0,0 l/m 0,00 h 0,00 h 0,0 UV-I 47 W/m 6,7 km/h (2 Bft)
09.04.2014 20:00 12,4 C 10,5 C 65 % 1023,3 hPa 0,0 l/m 0,00 h 0,00 h 0,0 UV-I 8 W/m 3,1 km/h (1 Bft)
09.04.2014 21:00 11,2 C 9,4 C 66 % 1023,5 hPa 0,0 l/m 0,00 h 0,00 h 0,0 UV-I 0 W/m 1,0 km/h (0 Bft)
09.04.2014 22:00 10,6 C 8,9 C 70 % 1023,7 hPa 0,0 l/m 0,00 h 0,00 h 0,0 UV-I 0 W/m 0,1 km/h (0 Bft)
09.04.2014 23:00 10,0 C 8,3 C 74 % 1023,8 hPa 0,0 l/m 0,00 h 0,00 h 0,0 UV-I 0 W/m 0,0 km/h (0 Bft)
10.04.2014 00:00 9,4 C 7,8 C 77 % 1023,7 hPa 0,0 l/m 0,00 h 0,00 h 0,0 UV-I 0 W/m 0,1 km/h (0 Bft)
10.04.2014 01:00 8,6 C 6,9 C 80 % 1023,4 hPa 0,0 l/m 0,00 h 0,00 h 0,0 UV-I 0 W/m 0,0 km/h (0 Bft)
10.04.2014 02:00 8,0 C 6,6 C 83 % 1023,3 hPa 0,0 l/m 0,00 h 0,00 h 0,0 UV-I 0 W/m 0,0 km/h (0 Bft)
10.04.2014 03:00 8,6 C 7,4 C 82 % 1023,0 hPa 0,0 l/m 0,00 h 0,00 h 0,0 UV-I 0 W/m 0,8 km/h (0 Bft)
10.04.2014 04:00 8,6 C 7,7 C 82 % 1022,6 hPa 0,0 l/m 0,00 h 0,00 h 0,0 UV-I 0 W/m 2,0 km/h (1 Bft)
10.04.2014 05:00 8,7 C 7,8 C 84 % 1022,3 hPa 0,0 l/m 0,00 h 0,00 h 0,0 UV-I 0 W/m 2,1 km/h (1 Bft)
10.04.2014 06:00 8,8 C 7,8 C 83 % 1022,0 hPa 0,0 l/m 0,00 h 0,00 h 0,0 UV-I 0 W/m 1,0 km/h (0 Bft)
10.04.2014 07:00 8,8 C 7,9 C 85 % 1022,4 hPa 0,0 l/m 0,00 h 0,00 h 0,0 UV-I 19 W/m 0,4 km/h (0 Bft)
10.04.2014 08:00 9,2 C 8,5 C 85 % 1022,7 hPa 0,0 l/m 0,00 h 0,00 h 0,0 UV-I 54 W/m 0,0 km/h (0 Bft)
10.04.2014 09:00 10,1 C 9,8 C 83 % 1022,8 hPa 0,0 l/m 0,03 h 0,00 h 0,0 UV-I 138 W/m 0,8 km/h (0 Bft)
10.04.2014 10:00 12,0 C 12,2 C 79 % 1022,7 hPa 0,0 l/m 0,57 h 0,00 h 0,8 UV-I 322 W/m 1,9 km/h (1 Bft)
10.04.2014 11:00 14,1 C 14,3 C 74 % 1022,5 hPa 0,0 l/m 0,97 h 0,00 h 1,4 UV-I 440 W/m 3,7 km/h (1 Bft)
10.04.2014 12:00 15,5 C 16,0 C 68 % 1022,1 hPa 0,0 l/m 1,00 h 0,00 h 1,8 UV-I 491 W/m 5,7 km/h (1 Bft)
10.04.2014 13:00 16,3 C 16,7 C 64 % 1021,6 hPa 0,0 l/m 0,77 h 0,00 h 1,7 UV-I 434 W/m 4,6 km/h (1 Bft)
10.04.2014 14:00 16,0 C 16,0 C 64 % 1021,0 hPa 0,0 l/m 0,00 h 0,00 h 1,0 UV-I 222 W/m 1,3 km/h (1 Bft)
10.04.2014 15:00 15,9 C 15,4 C 64 % 1020,6 hPa 0,0 l/m 0,00 h 0,00 h 0,6 UV-I 211 W/m 1,5 km/h (1 Bft)
10.04.2014 16:00 16,1 C 15,4 C 61 % 1020,2 hPa 0,0 l/m 0,00 h 0,00 h 0,5 UV-I 192 W/m 1,9 km/h (1 Bft)
10.04.2014 17:00 16,2 C 14,4 C 62 % 1019,9 hPa 0,0 l/m 0,00 h 0,00 h 0,0 UV-I 171 W/m 1,7 km/h (1 Bft)
10.04.2014 18:00 16,0 C 14,8 C 62 % 1019,6 hPa 0,0 l/m 0,00 h 0,00 h 0,0 UV-I 100 W/m 1,6 km/h (1 Bft)
10.04.2014 19:00 15,4 C 13,5 C 66 % 1019,5 hPa 0,0 l/m 0,00 h 0,00 h 0,0 UV-I 32 W/m 0,0 km/h (0 Bft)
10.04.2014 20:00 14,6 C 12,0 C 69 % 1019,5 hPa 0,0 l/m 0,00 h 0,00 h 0,0 UV-I 5 W/m 0,0 km/h (0 Bft)
10.04.2014 21:00 13,5 C 10,9 C 76 % 1019,5 hPa 0,0 l/m 0,00 h 0,00 h 0,0 UV-I 0 W/m 0,0 km/h (0 Bft)
10.04.2014 22:00 11,7 C 9,1 C 82 % 1019,3 hPa 0,0 l/m 0,00 h 0,00 h 0,0 UV-I 0 W/m 0,0 km/h (0 Bft)
10.04.2014 23:00 10,1 C 8,0 C 88 % 1019,1 hPa 0,0 l/m 0,00 h 0,00 h 0,0 UV-I 0 W/m 0,0 km/h (0 Bft)
11.04.2014 00:00 9,1 C 7,1 C 91 % 1018,8 hPa 0,0 l/m 0,00 h 0,00 h 0,0 UV-I 0 W/m 0,0 km/h (0 Bft)
11.04.2014 01:00 8,2 C 6,5 C 93 % 1018,6 hPa 0,0 l/m 0,00 h 0,00 h 0,0 UV-I 0 W/m 0,0 km/h (0 Bft)
11.04.2014 02:00 8,7 C 7,5 C 94 % 1018,2 hPa 0,0 l/m 0,00 h 0,00 h 0,0 UV-I 0 W/m 0,0 km/h (0 Bft)
11.04.2014 03:00 9,3 C 7,9 C 93 % 1017,7 hPa 0,0 l/m 0,00 h 0,00 h 0,0 UV-I 0 W/m 0,0 km/h (0 Bft)
11.04.2014 04:00 9,6 C 8,3 C 93 % 1017,4 hPa 0,0 l/m 0,00 h 0,00 h 0,0 UV-I 0 W/m 0,0 km/h (0 Bft)
11.04.2014 05:00 9,9 C 8,7 C 92 % 1017,2 hPa 0,0 l/m 0,00 h 0,00 h 0,0 UV-I 0 W/m 0,1 km/h (0 Bft)
11.04.2014 06:00 10,1 C 8,7 C 90 % 1017,4 hPa 0,0 l/m 0,00 h 0,00 h 0,0 UV-I 5 W/m 0,0 km/h (0 Bft)
11.04.2014 07:00 10,1 C 8,9 C 90 % 1017,6 hPa 0,0 l/m 0,00 h 0,00 h 0,0 UV-I 19 W/m 0,9 km/h (0 Bft)
11.04.2014 08:00 10,8 C 10,0 C 90 % 1017,8 hPa 0,0 l/m 0,00 h 0,00 h 0,0 UV-I 91 W/m 1,0 km/h (0 Bft)
11.04.2014 09:00 11,8 C 11,3 C 88 % 1018,2 hPa 0,0 l/m 0,50 h 0,00 h 0,0 UV-I 248 W/m 7,5 km/h (2 Bft)
11.04.2014 10:00 13,5 C 13,2 C 79 % 1018,6 hPa 0,0 l/m 0,67 h 0,00 h 0,6 UV-I 397 W/m 16,2 km/h (3 Bft)
11.04.2014 11:00 13,6 C 13,4 C 77 % 1018,7 hPa 0,0 l/m 0,10 h 0,00 h 0,8 UV-I 329 W/m 17,0 km/h (3 Bft)
11.04.2014 12:00 13,6 C 13,4 C 76 % 1018,9 hPa 0,0 l/m 0,00 h 0,00 h 0,9 UV-I 275 W/m 17,2 km/h (3 Bft)
11.04.2014 13:00 13,9 C 13,9 C 75 % 1018,5 hPa 0,0 l/m 0,60 h 0,00 h 1,4 UV-I 486 W/m 16,0 km/h (3 Bft)
11.04.2014 14:00 14,5 C 14,8 C 69 % 1018,4 hPa 0,0 l/m 0,33 h 0,00 h 1,2 UV-I 368 W/m 16,1 km/h (3 Bft)
11.04.2014 15:00 14,2 C 14,3 C 68 % 1018,4 hPa 0,0 l/m 0,03 h 0,00 h 0,8 UV-I 288 W/m 15,6 km/h (3 Bft)
11.04.2014 16:00 14,2 C 14,1 C 64 % 1018,5 hPa 0,0 l/m 0,40 h 0,00 h 0,6 UV-I 308 W/m 19,2 km/h (3 Bft)
11.04.2014 17:00 14,4 C 13,9 C 63 % 1018,4 hPa 0,0 l/m 0,47 h 0,00 h 0,6 UV-I 264 W/m 14,4 km/h (3 Bft)
11.04.2014 18:00 13,9 C 13,0 C 64 % 1018,3 hPa 0,0 l/m 0,03 h 0,00 h 0,0 UV-I 118 W/m 9,4 km/h (2 Bft)
11.04.2014 19:00 13,4 C 12,1 C 65 % 1018,3 hPa 0,0 l/m 0,00 h 0,00 h 0,0 UV-I 42 W/m 6,0 km/h (2 Bft)
11.04.2014 20:00 12,0 C 10,2 C 70 % 1018,8 hPa 0,0 l/m 0,00 h 0,00 h 0,0 UV-I 10 W/m 0,4 km/h (0 Bft)
11.04.2014 21:00 10,1 C 7,7 C 79 % 1019,1 hPa 0,0 l/m 0,00 h 0,00 h 0,0 UV-I 0 W/m 0,0 km/h (0 Bft)
11.04.2014 22:00 9,0 C 6,8 C 84 % 1019,3 hPa 0,0 l/m 0,00 h 0,00 h 0,0 UV-I 0 W/m 0,0 km/h (0 Bft)
11.04.2014 23:00 7,8 C 5,8 C 88 % 1019,3 hPa 0,0 l/m 0,00 h 0,00 h 0,0 UV-I 0 W/m 0,0 km/h (0 Bft)
12.04.2014 00:00 6,8 C 5,1 C 91 % 1019,2 hPa 0,0 l/m 0,00 h 0,00 h 0,0 UV-I 0 W/m 0,0 km/h (0 Bft)
12.04.2014 01:00 6,1 C 4,5 C 93 % 1019,2 hPa 0,0 l/m 0,00 h 0,00 h 0,0 UV-I 0 W/m 0,0 km/h (0 Bft)
12.04.2014 02:00 5,4 C 4,0 C 94 % 1018,9 hPa 0,0 l/m 0,00 h 0,00 h 0,0 UV-I 0 W/m 0,0 km/h (0 Bft)
12.04.2014 03:00 5,1 C 3,4 C 95 % 1018,3 hPa 0,0 l/m 0,00 h 0,00 h 0,0 UV-I 0 W/m 0,0 km/h (0 Bft)
12.04.2014 04:00 4,5 C 3,0 C 96 % 1017,9 hPa 0,0 l/m 0,00 h 0,00 h 0,0 UV-I 0 W/m 0,0 km/h (0 Bft)
12.04.2014 05:00 3,9 C 2,6 C 96 % 1017,8 hPa 0,0 l/m 0,00 h 0,00 h 0,0 UV-I 0 W/m 0,0 km/h (0 Bft)
12.04.2014 06:00 3,5 C 2,2 C 97 % 1017,9 hPa 0,0 l/m 0,00 h 0,00 h 0,0 UV-I 6 W/m 0,0 km/h (0 Bft)
12.04.2014 07:00 4,3 C 3,6 C 97 % 1018,4 hPa 0,0 l/m 0,00 h 0,00 h 0,0 UV-I 29 W/m 0,1 km/h (0 Bft)
12.04.2014 08:00 4,8 C 4,6 C 98 % 1018,8 hPa 0,0 l/m 0,00 h 0,00 h 0,0 UV-I 96 W/m 0,1 km/h (0 Bft)
12.04.2014 09:00 5,9 C 6,6 C 98 % 1018,8 hPa 0,0 l/m 0,20 h 0,00 h 0,0 UV-I 203 W/m 0,1 km/h (0 Bft)
12.04.2014 10:00 9,2 C 9,8 C 99 % 1018,8 hPa 0,0 l/m 0,97 h 0,00 h 1,0 UV-I 455 W/m 0,7 km/h (0 Bft)
12.04.2014 11:00 13,0 C 12,9 C 80 % 1018,7 hPa 0,0 l/m 0,87 h 0,00 h 1,8 UV-I 567 W/m 4,4 km/h (1 Bft)
12.04.2014 12:00 13,9 C 14,0 C 72 % 1018,4 hPa 0,0 l/m 0,47 h 0,00 h 1,8 UV-I 462 W/m 4,8 km/h (1 Bft)
12.04.2014 13:00 15,5 C 15,7 C 63 % 1017,8 hPa 0,0 l/m 0,83 h 0,00 h 2,0 UV-I 668 W/m 10,5 km/h (2 Bft)
12.04.2014 14:00 16,2 C 16,3 C 58 % 1017,3 hPa 0,0 l/m 0,80 h 0,00 h 2,5 UV-I 596 W/m 9,6 km/h (2 Bft)
12.04.2014 15:00 15,8 C 15,8 C 52 % 1016,7 hPa 0,0 l/m 0,40 h 0,00 h 1,5 UV-I 400 W/m 8,4 km/h (2 Bft)
12.04.2014 16:00 15,8 C 15,7 C 47 % 1016,6 hPa 0,0 l/m 0,87 h 0,00 h 1,1 UV-I 378 W/m 10,5 km/h (2 Bft)
12.04.2014 17:00 15,4 C 15,1 C 53 % 1016,4 hPa 0,0 l/m 0,37 h 0,00 h 0,6 UV-I 236 W/m 7,1 km/h (2 Bft)
12.04.2014 18:00 14,9 C 14,1 C 58 % 1016,5 hPa 0,0 l/m 0,00 h 0,00 h 0,0 UV-I 107 W/m 5,1 km/h (1 Bft)
12.04.2014 19:00 14,0 C 12,6 C 62 % 1016,7 hPa 0,0 l/m 0,00 h 0,00 h 0,0 UV-I 37 W/m 3,3 km/h (1 Bft)
12.04.2014 20:00 12,9 C 11,2 C 66 % 1017,0 hPa 0,0 l/m 0,00 h 0,00 h 0,0 UV-I 5 W/m 0,9 km/h (0 Bft)
12.04.2014 21:00 12,2 C 10,1 C 69 % 1017,2 hPa 0,0 l/m 0,00 h 0,00 h 0,0 UV-I 0 W/m 0,0 km/h (0 Bft)
12.04.2014 22:00 11,8 C 10,0 C 73 % 1017,2 hPa 0,0 l/m 0,00 h 0,00 h 0,0 UV-I 0 W/m 0,0 km/h (0 Bft)
12.04.2014 23:00 11,7 C 10,0 C 72 % 1017,0 hPa 0,0 l/m 0,00 h 0,00 h 0,0 UV-I 0 W/m 1,0 km/h (0 Bft)
13.04.2014 00:00 10,2 C 7,9 C 78 % 1017,2 hPa 0,0 l/m 0,00 h 0,00 h 0,0 UV-I 0 W/m 0,0 km/h (0 Bft)
13.04.2014 01:00 10,0 C 8,4 C 78 % 1017,1 hPa 0,0 l/m 0,00 h 0,00 h 0,0 UV-I 0 W/m 0,0 km/h (0 Bft)
13.04.2014 02:00 9,1 C 7,0 C 81 % 1017,0 hPa 0,0 l/m 0,00 h 0,00 h 0,0 UV-I 0 W/m 0,0 km/h (0 Bft)
13.04.2014 03:00 8,4 C 6,7 C 84 % 1017,2 hPa 0,0 l/m 0,00 h 0,00 h 0,0 UV-I 0 W/m 1,6 km/h (1 Bft)
13.04.2014 04:00 7,6 C 6,5 C 86 % 1017,3 hPa 0,0 l/m 0,00 h 0,00 h 0,0 UV-I 0 W/m 0,5 km/h (0 Bft)
13.04.2014 05:00 7,0 C 5,6 C 87 % 1017,3 hPa 0,0 l/m 0,00 h 0,00 h 0,0 UV-I 0 W/m 0,9 km/h (0 Bft)
13.04.2014 06:00 7,1 C 6,2 C 89 % 1017,6 hPa 0,0 l/m 0,00 h 0,00 h 0,0 UV-I 6 W/m 3,0 km/h (1 Bft)
13.04.2014 07:00 7,7 C 7,0 C 89 % 1018,1 hPa 0,0 l/m 0,00 h 0,00 h 0,0 UV-I 27 W/m 2,6 km/h (1 Bft)
13.04.2014 08:00 8,3 C 7,9 C 89 % 1018,8 hPa 0,0 l/m 0,00 h 0,00 h 0,0 UV-I 71 W/m 6,2 km/h (2 Bft)
13.04.2014 09:00 9,6 C 9,5 C 88 % 1019,2 hPa 0,0 l/m 0,00 h 0,00 h 0,0 UV-I 145 W/m 3,4 km/h (1 Bft)
13.04.2014 10:00 11,6 C 11,8 C 83 % 1019,6 hPa 0,0 l/m 0,57 h 0,00 h 0,7 UV-I 342 W/m 7,3 km/h (2 Bft)
13.04.2014 11:00 12,8 C 13,4 C 77 % 1019,8 hPa 0,0 l/m 0,27 h 0,00 h 0,9 UV-I 337 W/m 9,9 km/h (2 Bft)
13.04.2014 12:00 13,7 C 14,1 C 72 % 1019,5 hPa 0,0 l/m 0,07 h 0,00 h 1,0 UV-I 306 W/m 10,3 km/h (2 Bft)
13.04.2014 13:00 14,0 C 13,8 C 68 % 1019,4 hPa 0,0 l/m 0,13 h 0,00 h 1,1 UV-I 272 W/m 11,2 km/h (2 Bft)
13.04.2014 14:00 14,9 C 15,5 C 62 % 1019,4 hPa 0,0 l/m 0,50 h 0,00 h 1,7 UV-I 460 W/m 14,1 km/h (3 Bft)
13.04.2014 15:00 15,0 C 15,1 C 60 % 1019,3 hPa 0,0 l/m 0,17 h 0,00 h 1,1 UV-I 317 W/m 15,3 km/h (3 Bft)
13.04.2014 16:00 14,5 C 14,5 C 59 % 1019,1 hPa 0,0 l/m 0,20 h 0,00 h 0,8 UV-I 272 W/m 12,2 km/h (3 Bft)
13.04.2014 17:00 14,5 C 14,0 C 58 % 1018,6 hPa 0,0 l/m 0,37 h 0,00 h 0,7 UV-I 262 W/m 12,3 km/h (3 Bft)
13.04.2014 18:00 13,9 C 12,8 C 59 % 1018,6 hPa 0,0 l/m 0,10 h 0,00 h 0,0 UV-I 111 W/m 11,4 km/h (2 Bft)
13.04.2014 19:00 12,7 C 11,1 C 61 % 1018,5 hPa 0,0 l/m 0,00 h 0,00 h 0,0 UV-I 37 W/m 7,5 km/h (2 Bft)
13.04.2014 20:00 10,6 C 8,9 C 68 % 1018,5 hPa 0,0 l/m 0,00 h 0,00 h 0,0 UV-I 10 W/m 0,9 km/h (0 Bft)
13.04.2014 21:00 8,8 C 6,8 C 74 % 1018,5 hPa 0,0 l/m 0,00 h 0,00 h 0,0 UV-I 0 W/m 0,1 km/h (0 Bft)
13.04.2014 22:00 7,6 C 5,4 C 79 % 1018,2 hPa 0,0 l/m 0,00 h 0,00 h 0,0 UV-I 0 W/m 0,0 km/h (0 Bft)
13.04.2014 23:00 6,8 C 4,8 C 82 % 1018,1 hPa 0,0 l/m 0,00 h 0,00 h 0,0 UV-I 0 W/m 0,0 km/h (0 Bft)
Min-Datum _ 12.04.14 12.04.14 12.04.14 07.04.14 - - - - - 07.04.14
_ Min-Zeit 06:42 05:26 16:10 22:36 - - - - - 00:18
Minimum _ 3,3 C 2,2 C 44 % 1006,7 hPa - - - - - 0,0 km/h (0 Bft)
Max-Datum _ 07.04.14 07.04.14 12.04.14 09.04.14 07.04.14 07.04.14 07.04.14 12.04.14 08.04.14 08.04.14
_ Max-Zeit 15:42 15:40 09:52 11:40 23:06 09:00 02:46 14:02 13:28 04:48
Maximum _ 23,5 C 26,7 C 99 % 1025,0 hPa 3,0 l/m 0,03 h 0,03 h 3,4 UV-I 909 W/m 46,3 km/h
W-SW (6 Bft)
Durchschnitt _ 11,8 C 10,5 C 78 % 1018,3 hPa #9,0 l/m #27:16 h #4:52 h 1,2 UV-I 230 W/m 6,5 km/h (2 Bft)
© 2014 W. Hausmann